Time;durP1;ratioP1;P1;durP2;ratioP2;P2;SDS_P1;SDS_P2;PMS_P1;PMS_P2;Temp;Humidity;BMP_temperature;BMP_pressure;BME280_temperature;BME280_humidity;BME280_pressure;Samples;Min_cycle;Max_cycle;Signal;HPM_P1;HPM_P2
2022/10/24 00:02:00;;;;;;;;;1.00;1.00;;;;;19.49;53.92;100179.69;4966824;28;45387;-63
2022/10/24 00:04:25;;;;;;;;;1.25;1.25;;;;;19.44;54.41;100187.97;4966769;28;45555;-63
2022/10/24 00:06:50;;;;;;;;;1.00;1.00;;;;;19.48;53.99;100181.53;4966902;28;45455;-62
2022/10/24 00:09:16;;;;;;;;;1.25;1.00;;;;;19.47;54.32;100178.91;4966635;28;48329;-63
2022/10/24 00:11:41;;;;;;;;;3.75;2.00;;;;;19.39;54.30;100176.72;4966538;28;45350;-63
2022/10/24 00:14:07;;;;;;;;;1.25;1.25;;;;;19.44;54.09;100174.63;4966447;28;45334;-63
2022/10/24 00:16:32;;;;;;;;;1.00;1.00;;;;;19.36;54.44;100176.06;4966589;28;45337;-63
2022/10/24 00:18:57;;;;;;;;;3.25;2.50;;;;;19.36;54.27;100168.06;4966321;28;46009;-63
2022/10/24 00:21:23;;;;;;;;;2.75;1.00;;;;;19.30;54.28;100154.16;4966643;28;45416;-63
2022/10/24 00:23:48;;;;;;;;;1.75;1.00;;;;;19.26;54.43;100162.44;4966894;28;45390;-65
2022/10/24 00:26:15;;;;;;;;;3.75;1.00;;;;;19.22;54.70;100174.22;4966570;28;45405;-63
2022/10/24 00:28:40;;;;;;;;;3.50;2.00;;;;;19.22;54.33;100160.91;4966307;28;46129;-63
2022/10/24 00:31:11;;;;;;;;;4.50;3.00;;;;;19.18;54.55;100168.19;4961261;28;45369;-63
2022/10/24 00:33:36;;;;;;;;;4.50;2.50;;;;;19.15;54.74;100161.25;4963410;28;45269;-63
2022/10/24 00:36:02;;;;;;;;;2.50;1.50;;;;;19.14;54.77;100172.88;4963161;28;46530;-63
2022/10/24 00:38:27;;;;;;;;;4.50;3.00;;;;;19.10;54.43;100170.47;4963180;28;45353;-63
2022/10/24 00:40:53;;;;;;;;;3.75;3.75;;;;;18.99;54.74;100160.44;4963158;28;45327;-62
2022/10/24 00:43:23;;;;;;;;;1.00;1.00;;;;;19.10;54.80;100167.81;4963589;28;45326;-62
2022/10/24 00:45:53;;;;;;;;;2.25;2.25;;;;;19.02;54.96;100176.25;4963370;28;45521;-63
2022/10/24 00:48:34;;;;;;;;;2.75;2.00;;;;;19.07;54.59;100170.66;4962621;28;45483;-62
2022/10/24 00:51:11;;;;;;;;;4.00;2.00;;;;;19.06;54.55;100163.63;4963130;28;45264;-62
2022/10/24 00:53:43;;;;;;;;;6.00;4.00;;;;;19.03;55.28;100161.13;4963181;28;45372;-62
2022/10/24 00:56:12;;;;;;;;;3.75;3.00;;;;;19.01;55.38;100174.53;4961490;28;45438;-62
2022/10/24 00:58:40;;;;;;;;;2.00;2.00;;;;;19.03;55.02;100172.66;4962778;28;45285;-62
2022/10/24 01:01:07;;;;;;;;;4.50;1.75;;;;;19.00;55.04;100167.50;4962921;28;45416;-62
2022/10/24 01:03:33;;;;;;;;;2.50;2.25;;;;;18.93;54.93;100172.34;4962583;28;45261;-63
2022/10/24 01:06:20;;;;;;;;;5.00;2.50;;;;;18.93;55.20;100192.75;4962954;28;45218;-62
2022/10/24 01:08:58;;;;;;;;;3.50;3.00;;;;;18.87;55.44;100193.94;4962778;28;45297;-63
2022/10/24 01:11:36;;;;;;;;;1.25;1.25;;;;;18.85;55.08;100206.47;4961371;28;45436;-63
2022/10/24 01:14:09;;;;;;;;;2.50;2.00;;;;;18.86;55.41;100213.53;4962692;28;45449;-62
2022/10/24 01:16:40;;;;;;;;;1.75;1.75;;;;;18.82;55.60;100210.16;4962372;28;45402;-62
2022/10/24 01:19:24;;;;;;;;;3.50;1.25;;;;;18.84;55.21;100218.94;4962078;28;46194;-63
2022/10/24 01:21:58;;;;;;;;;4.50;1.00;;;;;18.82;55.43;100218.16;4962594;28;46512;-63
2022/10/24 01:24:48;;;;;;;;;2.50;2.50;;;;;18.84;55.22;100216.28;4962652;28;45243;-63
2022/10/24 01:27:25;;;;;;;;;5.25;2.75;;;;;18.84;54.90;100218.06;4962277;28;45326;-64
2022/10/24 01:30:07;;;;;;;;;2.75;2.00;;;;;18.75;55.59;100214.13;4962506;28;46185;-63
2022/10/24 01:33:01;;;;;;;;;2.00;0.00;;;;;18.72;55.50;100232.09;4962132;28;45420;-63
2022/10/24 01:35:56;;;;;;;;;6.00;2.00;;;;;18.66;55.88;100227.97;4962467;28;45494;-63
2022/10/24 01:38:34;;;;;;;;;2.00;2.00;;;;;18.72;55.65;100248.06;4962169;28;45261;-63
2022/10/24 01:41:06;;;;;;;;;2.00;1.00;;;;;18.73;55.12;100237.31;4959388;28;46989;-63
2022/10/24 01:43:38;;;;;;;;;5.50;2.50;;;;;18.74;55.87;100256.78;4962165;28;45509;-63
2022/10/24 01:46:09;;;;;;;;;2.25;1.00;;;;;18.69;55.42;100243.75;4962407;28;45236;-63
2022/10/24 01:48:44;;;;;;;;;0.75;0.25;;;;;18.64;55.90;100241.34;4961780;28;45242;-62
2022/10/24 01:51:13;;;;;;;;;3.75;2.00;;;;;18.65;55.57;100264.38;4962120;28;45322;-63
2022/10/24 01:53:42;;;;;;;;;2.00;1.75;;;;;18.68;55.98;100253.53;4961923;28;45218;-63
2022/10/24 01:56:07;;;;;;;;;3.00;2.00;;;;;18.65;55.51;100255.50;4962107;28;45379;-63
2022/10/24 01:58:32;;;;;;;;;2.50;2.50;;;;;18.61;56.00;100249.50;4961822;28;45285;-63
2022/10/24 02:01:05;;;;;;;;;3.00;2.00;;;;;18.67;55.92;100241.16;4961949;28;45408;-63
2022/10/24 02:03:39;;;;;;;;;3.50;1.50;;;;;18.70;55.74;100244.63;4961809;28;45230;-63
2022/10/24 02:06:15;;;;;;;;;2.00;1.00;;;;;18.61;56.02;100241.50;4962008;28;45287;-62
2022/10/24 02:08:43;;;;;;;;;2.00;1.00;;;;;18.49;55.51;100223.59;4961926;28;45388;-63
2022/10/24 02:11:09;;;;;;;;;1.00;1.00;;;;;18.56;55.68;100229.41;4961050;28;45377;-63
2022/10/24 02:13:49;;;;;;;;;1.75;1.75;;;;;18.56;56.03;100248.03;4961691;28;45338;-63
2022/10/24 02:16:18;;;;;;;;;2.25;2.00;;;;;18.52;56.17;100240.22;4938738;28;45335;-63
2022/10/24 02:18:44;;;;;;;;;3.50;2.25;;;;;18.50;56.09;100234.16;4964626;28;45455;-62
2022/10/24 02:21:16;;;;;;;;;3.00;1.75;;;;;18.49;56.29;100232.41;4961627;28;45389;-63
2022/10/24 02:23:57;;;;;;;;;1.00;1.00;;;;;18.47;55.88;100215.69;4961651;28;45357;-63
2022/10/24 02:26:32;;;;;;;;;4.00;2.25;;;;;18.47;56.37;100218.34;4960268;28;45351;-65
2022/10/24 02:29:03;;;;;;;;;4.75;3.00;;;;;18.44;56.32;100213.19;4961519;28;45457;-63
2022/10/24 02:31:38;;;;;;;;;1.00;1.00;;;;;18.38;55.94;100202.91;4961364;28;46233;-66
2022/10/24 02:34:08;;;;;;;;;2.50;1.75;;;;;18.34;56.60;100206.69;4961228;28;45324;-63
2022/10/24 02:36:36;;;;;;;;;1.00;1.00;;;;;18.26;56.43;100200.91;4961618;28;45385;-63
2022/10/24 02:39:04;;;;;;;;;4.75;2.25;;;;;18.24;56.79;100211.63;4961258;28;45356;-64
2022/10/24 02:41:34;;;;;;;;;1.50;1.25;;;;;18.19;56.71;100208.38;4960033;28;46317;-63
2022/10/24 02:44:02;;;;;;;;;1.00;0.75;;;;;18.17;56.96;100189.81;4961256;28;45219;-63
2022/10/24 02:46:30;;;;;;;;;2.50;1.75;;;;;18.14;56.53;100202.44;4961334;28;45341;-63
2022/10/24 02:48:59;;;;;;;;;1.75;1.75;;;;;18.13;56.98;100193.59;4960823;28;45389;-63
2022/10/24 02:51:28;;;;;;;;;2.75;1.25;;;;;18.13;56.70;100198.91;4959965;28;45334;-63
2022/10/24 02:53:54;;;;;;;;;2.50;1.25;;;;;18.16;56.77;100195.22;4960637;28;45320;-63
2022/10/24 02:56:20;;;;;;;;;3.00;2.00;;;;;18.14;56.94;100194.47;4961213;28;45321;-63
2022/10/24 02:58:46;;;;;;;;;1.25;1.00;;;;;18.06;56.82;100189.53;4960731;28;45340;-63
2022/10/24 03:01:11;;;;;;;;;1.00;0.75;;;;;18.05;57.09;100192.28;4961148;28;46306;-63
2022/10/24 03:03:37;;;;;;;;;2.00;0.00;;;;;17.99;57.20;100197.00;4959727;28;46207;-63
2022/10/24 03:06:03;;;;;;;;;1.50;0.00;;;;;17.94;57.22;100204.38;4961334;28;45508;-63
2022/10/24 03:08:28;;;;;;;;;1.00;1.00;;;;;17.93;57.26;100204.44;4961032;28;45404;-63
2022/10/24 03:10:53;;;;;;;;;2.25;1.00;;;;;17.92;57.21;100194.72;4960899;28;46187;-64
2022/10/24 03:13:19;;;;;;;;;1.75;1.00;;;;;17.91;57.38;100195.66;4960975;28;45219;-62
2022/10/24 03:15:44;;;;;;;;;5.50;2.00;;;;;17.86;57.50;100194.13;4959669;28;45299;-63
2022/10/24 03:18:10;;;;;;;;;4.50;1.00;;;;;17.90;57.29;100220.53;4960629;28;45159;-62
2022/10/24 03:20:35;;;;;;;;;3.50;1.00;;;;;17.88;57.51;100202.00;4960791;28;45261;-63
2022/10/24 03:23:00;;;;;;;;;3.00;0.25;;;;;17.83;57.71;100201.41;4960839;28;45215;-63
2022/10/24 03:25:26;;;;;;;;;2.75;0.50;;;;;17.85;57.67;100210.16;4960946;28;45215;-63
2022/10/24 03:27:51;;;;;;;;;1.75;1.00;;;;;17.81;57.76;100204.13;4959426;28;45363;-63
2022/10/24 03:30:16;;;;;;;;;3.25;2.25;;;;;17.76;57.83;100213.28;4960820;28;45237;-63
2022/10/24 03:32:42;;;;;;;;;3.00;1.00;;;;;17.72;57.81;100212.56;4960418;28;45392;-63
2022/10/24 03:35:08;;;;;;;;;1.00;1.00;;;;;17.72;57.55;100215.22;4961069;28;45340;-63
2022/10/24 03:37:33;;;;;;;;;2.75;1.00;;;;;17.74;57.99;100225.81;4960216;28;45383;-63
2022/10/24 03:39:58;;;;;;;;;3.25;1.50;;;;;17.73;57.91;100226.75;4960445;28;50754;-63
2022/10/24 03:42:24;;;;;;;;;1.00;1.00;;;;;17.76;57.88;100243.38;4960557;28;46859;-62
2022/10/24 03:44:49;;;;;;;;;5.50;1.00;;;;;17.66;58.20;100237.69;4960726;28;45329;-63
2022/10/24 03:47:14;;;;;;;;;2.00;1.00;;;;;17.63;58.22;100244.94;4960139;28;45491;-63
2022/10/24 03:49:40;;;;;;;;;5.75;2.00;;;;;17.61;58.38;100247.69;4959402;28;46980;-62
2022/10/24 03:52:05;;;;;;;;;1.50;1.50;;;;;17.70;58.14;100252.53;4960416;28;45328;-62
2022/10/24 03:54:31;;;;;;;;;2.75;1.25;;;;;17.62;58.62;100256.50;4960732;28;45436;-63
2022/10/24 03:56:56;;;;;;;;;0.75;0.00;;;;;17.61;58.47;100249.47;4960386;28;45532;-63
2022/10/24 03:59:21;;;;;;;;;7.00;3.25;;;;;17.58;58.43;100255.81;4960513;28;45406;-63
2022/10/24 04:01:47;;;;;;;;;3.75;1.50;;;;;17.63;58.36;100259.09;4960638;28;45436;-63
2022/10/24 04:04:13;;;;;;;;;3.25;2.25;;;;;17.63;58.43;100260.91;4960581;28;45448;-62
2022/10/24 04:06:39;;;;;;;;;2.00;1.00;;;;;17.59;58.48;100264.66;4963676;28;45211;-63
2022/10/24 04:09:05;;;;;;;;;3.00;3.00;;;;;17.60;58.55;100259.25;4963690;28;46881;-63
2022/10/24 04:11:31;;;;;;;;;3.25;1.75;;;;;17.57;58.71;100261.19;4962267;28;45316;-63
2022/10/24 04:13:56;;;;;;;;;4.50;1.00;;;;;17.53;58.50;100265.81;4963632;28;45341;-63
2022/10/24 04:16:22;;;;;;;;;4.50;1.00;;;;;17.53;58.75;100274.66;4963680;28;45372;-63
2022/10/24 04:18:49;;;;;;;;;2.25;1.00;;;;;17.51;58.89;100265.91;4963156;28;46079;-64
2022/10/24 04:21:14;;;;;;;;;7.25;2.00;;;;;17.50;58.89;100269.47;4963386;28;45325;-63
2022/10/24 04:23:41;;;;;;;;;2.25;2.00;;;;;17.50;58.93;100268.63;4963603;28;45312;-63
2022/10/24 04:26:07;;;;;;;;;6.00;1.50;;;;;17.48;58.83;100273.16;4963367;28;45231;-63
2022/10/24 04:28:33;;;;;;;;;0.50;0.50;;;;;17.47;58.87;100282.06;4963308;28;45430;-64
2022/10/24 04:30:58;;;;;;;;;2.00;1.00;;;;;17.45;58.85;100282.13;4963274;28;45207;-66
2022/10/24 04:33:24;;;;;;;;;1.75;1.00;;;;;17.46;59.10;100290.94;4962049;28;45251;-66
2022/10/24 04:35:50;;;;;;;;;3.00;1.25;;;;;17.47;59.02;100282.94;4978504;28;45941;-62
2022/10/24 04:38:17;;;;;;;;;2.50;0.50;;;;;17.50;59.11;100285.41;4962987;28;45337;-64
2022/10/24 04:40:48;;;;;;;;;2.25;2.25;;;;;17.50;58.95;100303.16;4962957;28;45396;-63
2022/10/24 04:43:13;;;;;;;;;2.25;2.00;;;;;17.54;59.22;100302.91;4962092;28;45283;-63
2022/10/24 04:45:38;;;;;;;;;3.00;1.00;;;;;17.51;59.12;100299.56;4962850;28;47136;-65
2022/10/24 04:48:04;;;;;;;;;3.25;1.25;;;;;17.49;59.02;100286.34;4962643;28;45226;-65
2022/10/24 04:50:29;;;;;;;;;4.50;1.25;;;;;17.50;59.08;100313.78;4963037;28;45241;-63
2022/10/24 04:52:54;;;;;;;;;3.00;1.75;;;;;17.51;59.39;100308.41;4963323;28;45240;-63
2022/10/24 04:55:20;;;;;;;;;2.25;2.00;;;;;17.50;59.13;100311.97;4963000;28;45251;-63
2022/10/24 04:57:45;;;;;;;;;5.00;2.50;;;;;17.50;59.41;100304.00;4962910;28;46107;-62
2022/10/24 05:00:11;;;;;;;;;4.75;3.00;;;;;17.55;59.31;100320.56;4961654;28;45268;-64
2022/10/24 05:02:36;;;;;;;;;1.25;0.75;;;;;17.54;59.15;100315.34;4961715;28;45322;-64
2022/10/24 05:05:02;;;;;;;;;4.50;2.25;;;;;17.51;59.30;100310.19;4962781;28;45332;-63
2022/10/24 05:07:27;;;;;;;;;4.00;2.00;;;;;17.50;59.20;100305.81;4962773;28;45365;-64
2022/10/24 05:09:52;;;;;;;;;7.00;5.75;;;;;17.53;59.24;100310.97;4962721;28;45525;-64
2022/10/24 05:12:17;;;;;;;;;2.75;1.00;;;;;17.49;59.45;100309.41;4963030;28;45290;-64
2022/10/24 05:14:45;;;;;;;;;2.75;2.75;;;;;17.49;59.15;100330.66;4962573;28;45377;-64
2022/10/24 05:17:11;;;;;;;;;4.00;3.00;;;;;17.47;59.32;100348.47;4962155;28;47102;-63
2022/10/24 05:19:37;;;;;;;;;4.75;3.25;;;;;17.45;59.74;100337.06;4962322;28;45396;-63
2022/10/24 05:22:02;;;;;;;;;5.00;3.00;;;;;17.47;59.32;100344.03;4962756;28;45251;-63
2022/10/24 05:24:28;;;;;;;;;4.00;3.00;;;;;17.47;59.38;100343.16;4962627;28;45243;-64
2022/10/24 05:26:54;;;;;;;;;4.25;3.25;;;;;17.46;59.68;100352.03;4962485;28;46020;-64
2022/10/24 05:29:19;;;;;;;;;3.75;3.00;;;;;17.50;59.36;100349.16;4962366;28;45264;-64
2022/10/24 05:31:45;;;;;;;;;4.25;2.00;;;;;17.47;59.56;100365.28;4962676;28;45206;-64
2022/10/24 05:34:10;;;;;;;;;6.25;2.00;;;;;17.44;59.71;100346.81;4962149;28;45258;-64
2022/10/24 05:36:35;;;;;;;;;4.00;1.25;;;;;17.49;59.42;100360.72;4962267;28;46454;-63
2022/10/24 05:39:01;;;;;;;;;4.50;3.25;;;;;17.46;59.42;100362.66;4962182;28;45342;-64
2022/10/24 05:41:26;;;;;;;;;4.25;2.50;;;;;17.46;59.83;100363.53;4962608;28;45491;-63
2022/10/24 05:43:52;;;;;;;;;5.25;1.00;;;;;17.47;59.84;100370.59;4962271;28;45436;-63
2022/10/24 05:46:17;;;;;;;;;2.25;2.00;;;;;17.44;59.71;100378.69;4960995;28;46416;-64
2022/10/24 05:48:42;;;;;;;;;5.00;3.75;;;;;17.37;59.42;100364.84;4961783;28;45265;-63
2022/10/24 05:51:08;;;;;;;;;2.75;1.00;;;;;17.41;59.67;100385.94;4962523;28;45805;-64
2022/10/24 05:53:33;;;;;;;;;5.50;3.25;;;;;17.44;59.67;100393.78;4962094;28;45322;-64
2022/10/24 05:55:58;;;;;;;;;3.00;2.00;;;;;17.40;59.76;100385.09;4962068;28;45342;-64
2022/10/24 05:58:24;;;;;;;;;3.25;1.25;;;;;17.42;59.82;100388.53;4961953;28;45193;-64
2022/10/24 06:00:49;;;;;;;;;1.25;1.00;;;;;17.45;59.78;100385.72;4962390;28;45253;-64
2022/10/24 06:03:16;;;;;;;;;3.00;2.00;;;;;17.43;59.74;100395.56;4961772;28;45321;-64
2022/10/24 06:05:41;;;;;;;;;4.50;2.00;;;;;17.47;59.80;100398.94;4962124;28;45494;-63
2022/10/24 06:08:07;;;;;;;;;4.00;2.00;;;;;17.43;59.65;100376.09;4961840;28;45217;-64
2022/10/24 06:10:33;;;;;;;;;3.00;2.00;;;;;17.38;59.93;100382.50;4961889;28;45452;-63
2022/10/24 06:12:58;;;;;;;;;4.00;1.75;;;;;17.44;59.83;100393.78;4960619;28;45575;-63
2022/10/24 06:15:23;;;;;;;;;4.75;2.50;;;;;17.43;59.96;100387.59;4961693;28;46131;-63
2022/10/24 06:17:49;;;;;;;;;5.50;3.75;;;;;17.44;60.01;100389.31;4959921;28;45324;-62
2022/10/24 06:20:15;;;;;;;;;2.00;2.00;;;;;17.40;59.88;100403.69;4961995;28;45308;-63
2022/10/24 06:22:40;;;;;;;;;4.00;1.00;;;;;17.42;60.11;100390.31;4961631;28;45615;-63
2022/10/24 06:25:06;;;;;;;;;2.25;2.25;;;;;17.40;60.04;100397.53;4961821;28;45952;-62
2022/10/24 06:27:31;;;;;;;;;4.00;1.00;;;;;17.43;59.85;100406.16;4960609;28;45294;-63
2022/10/24 06:29:57;;;;;;;;;3.25;2.75;;;;;17.44;59.93;100391.97;4961772;28;45524;-62
2022/10/24 06:32:22;;;;;;;;;3.00;2.75;;;;;17.44;59.72;100402.59;4961244;28;45603;-63
2022/10/24 06:34:47;;;;;;;;;7.50;2.00;;;;;17.46;59.92;100405.16;4961698;28;46051;-63
2022/10/24 06:37:13;;;;;;;;;6.50;2.00;;;;;17.45;59.83;100398.16;4961516;28;46166;-63
2022/10/24 06:39:38;;;;;;;;;1.75;1.75;;;;;17.42;59.79;100399.16;4943800;28;45288;-64
2022/10/24 06:42:03;;;;;;;;;5.75;3.00;;;;;17.41;59.93;100404.53;4961397;28;45250;-64
2022/10/24 06:44:30;;;;;;;;;4.00;4.00;;;;;17.41;59.77;100409.84;4961449;28;45418;-64
2022/10/24 06:46:55;;;;;;;;;6.25;3.00;;;;;17.37;59.83;100417.09;4959729;28;45456;-64
2022/10/24 06:49:20;;;;;;;;;5.00;1.25;;;;;17.41;59.90;100418.69;4961312;28;45308;-64
2022/10/24 06:51:46;;;;;;;;;3.75;3.00;;;;;17.38;59.93;100418.81;4961375;28;45406;-65
2022/10/24 06:54:11;;;;;;;;;14.25;8.75;;;;;17.37;60.02;100433.03;4961286;28;46298;-63
2022/10/24 06:56:36;;;;;;;;;3.25;2.75;;;;;17.40;59.81;100424.09;4961057;28;45321;-63
2022/10/24 06:59:06;;;;;;;;;6.75;4.75;;;;;17.37;60.02;100427.72;4961413;28;45333;-63
2022/10/24 07:01:34;;;;;;;;;8.00;2.00;;;;;17.35;59.95;100419.81;4961225;28;45362;-63
2022/10/24 07:03:59;;;;;;;;;3.00;2.00;;;;;17.40;59.89;100429.41;4960349;28;45454;-63
2022/10/24 07:06:28;;;;;;;;;3.00;2.00;;;;;17.32;59.93;100435.03;4960933;28;45369;-63
2022/10/24 07:08:56;;;;;;;;;4.75;2.50;;;;;17.33;60.00;100447.38;4961322;28;45237;-63
2022/10/24 07:11:22;;;;;;;;;4.75;3.00;;;;;17.32;60.11;100449.19;4960761;28;45242;-63
2022/10/24 07:13:47;;;;;;;;;6.50;3.25;;;;;17.35;60.02;100456.16;4976055;28;46253;-63
2022/10/24 07:16:13;;;;;;;;;3.25;0.75;;;;;17.36;59.93;100466.69;4960930;28;45300;-63
2022/10/24 07:18:39;;;;;;;;;4.25;3.25;;;;;17.36;59.82;100464.03;4959560;28;45309;-63
2022/10/24 07:21:08;;;;;;;;;5.00;2.00;;;;;17.38;59.98;100467.50;4960749;28;45327;-63
2022/10/24 07:23:34;;;;;;;;;3.25;2.00;;;;;17.38;60.01;100466.63;4960877;28;46210;-62
2022/10/24 07:26:04;;;;;;;;;5.75;3.00;;;;;17.36;60.10;100472.00;4960606;28;45314;-64
2022/10/24 07:28:30;;;;;;;;;4.00;3.75;;;;;17.31;60.26;100476.69;4960850;28;45314;-62
2022/10/24 07:30:55;;;;;;;;;3.75;2.75;;;;;17.24;60.16;100471.72;4960558;28;45619;-64
2022/10/24 07:33:21;;;;;;;;;5.75;4.00;;;;;17.33;60.22;100479.25;4960509;28;45797;-64
2022/10/24 07:35:46;;;;;;;;;3.50;2.00;;;;;17.38;60.24;100487.88;4960732;28;45337;-65
2022/10/24 07:38:11;;;;;;;;;3.50;3.50;;;;;17.37;60.24;100491.44;4960922;28;45350;-62
2022/10/24 07:40:37;;;;;;;;;1.75;1.50;;;;;17.42;60.19;100497.44;4963908;28;45472;-64
2022/10/24 07:43:02;;;;;;;;;4.00;2.75;;;;;17.40;60.35;100495.78;4962706;28;46993;-64
2022/10/24 07:45:28;;;;;;;;;6.25;2.25;;;;;17.42;60.23;100502.75;4962726;28;45296;-62
2022/10/24 07:47:54;;;;;;;;;6.25;3.00;;;;;17.42;60.22;100493.91;4963801;28;45246;-63
2022/10/24 07:50:19;;;;;;;;;4.50;2.00;;;;;17.42;60.42;100501.88;4963912;28;45487;-64
2022/10/24 07:52:45;;;;;;;;;4.50;2.00;;;;;17.45;60.36;100499.94;4964038;28;46399;-65
2022/10/24 07:55:10;;;;;;;;;6.00;3.25;;;;;17.48;60.37;100509.56;4964088;28;45334;-64
2022/10/24 07:57:36;;;;;;;;;7.25;5.25;;;;;17.42;60.30;100499.22;4964016;28;45468;-64
2022/10/24 08:00:02;;;;;;;;;9.00;6.25;;;;;17.42;60.31;100496.56;4963911;28;45314;-63
2022/10/24 08:02:28;;;;;;;;;6.75;2.75;;;;;17.46;60.29;100514.94;4963442;28;46433;-63
2022/10/24 08:04:53;;;;;;;;;6.00;3.25;;;;;17.46;60.38;100506.09;4963533;28;45341;-63
2022/10/24 08:07:18;;;;;;;;;3.00;2.00;;;;;17.51;60.43;100512.94;4963821;28;45538;-62
2022/10/24 08:09:46;;;;;;;;;7.00;4.00;;;;;17.60;60.31;100526.75;4963803;28;45544;-63
2022/10/24 08:12:12;;;;;;;;;6.00;2.25;;;;;17.59;60.40;100523.19;4963595;28;46202;-62
2022/10/24 08:14:38;;;;;;;;;5.75;2.00;;;;;17.57;60.46;100522.41;4963468;28;45356;-63
2022/10/24 08:17:04;;;;;;;;;8.00;2.00;;;;;17.62;60.52;100522.19;4963576;28;45506;-63
2022/10/24 08:19:31;;;;;;;;;6.75;3.00;;;;;17.65;60.56;100517.59;4963236;28;45562;-65
2022/10/24 08:21:58;;;;;;;;;4.50;2.00;;;;;17.72;60.43;100528.78;4962184;28;46086;-63
2022/10/24 08:24:23;;;;;;;;;4.00;3.00;;;;;17.75;60.47;100523.34;4963377;28;45350;-64
2022/10/24 08:26:49;;;;;;;;;7.00;4.25;;;;;17.75;60.38;100509.19;4963631;28;45305;-64
2022/10/24 08:29:20;;;;;;;;;6.75;3.00;;;;;17.81;60.50;100522.16;4963287;28;45460;-64
2022/10/24 08:31:49;;;;;;;;;2.50;0.75;;;;;17.85;60.35;100529.94;4962990;28;46338;-63
2022/10/24 08:34:15;;;;;;;;;2.75;2.00;;;;;17.87;60.19;100521.88;4962911;28;45281;-66
2022/10/24 08:36:41;;;;;;;;;9.50;4.50;;;;;17.89;59.99;100513.84;4963357;28;45445;-63
2022/10/24 08:39:07;;;;;;;;;4.75;2.25;;;;;17.87;60.30;100525.41;4963063;28;45196;-63
2022/10/24 08:41:37;;;;;;;;;2.00;2.00;;;;;17.90;60.42;100534.16;4963204;28;45222;-63
2022/10/24 08:44:13;;;;;;;;;11.00;6.25;;;;;17.92;60.18;100534.97;4963071;28;45314;-64
2022/10/24 08:46:51;;;;;;;;;3.50;2.25;;;;;17.92;60.17;100543.78;4963087;28;45461;-63
2022/10/24 08:49:20;;;;;;;;;5.50;2.50;;;;;17.96;60.28;100553.38;4962992;28;45449;-63
2022/10/24 08:52:00;;;;;;;;;6.00;3.50;;;;;18.04;59.80;100547.69;4962317;28;45268;-63
2022/10/24 08:54:40;;;;;;;;;4.50;2.00;;;;;18.01;60.03;100556.69;4962867;28;45421;-63
2022/10/24 08:57:18;;;;;;;;;5.25;2.00;;;;;18.05;60.13;100540.56;4962770;28;45234;-63
2022/10/24 08:59:43;;;;;;;;;4.75;3.25;;;;;18.02;60.01;100544.25;4962878;28;45476;-63
2022/10/24 09:02:18;;;;;;;;;5.50;2.00;;;;;18.04;59.99;100547.69;4962637;28;46130;-63
2022/10/24 09:05:00;;;;;;;;;3.75;3.75;;;;;18.08;60.05;100535.97;4962899;28;45273;-63
2022/10/24 09:07:26;;;;;;;;;3.00;2.00;;;;;18.13;59.87;100543.72;4962889;28;45186;-63
2022/10/24 09:10:04;;;;;;;;;5.50;3.75;;;;;18.15;59.72;100550.69;4962697;28;45437;-62
2022/10/24 09:12:32;;;;;;;;;1.00;1.00;;;;;18.15;60.19;100548.03;4962728;28;46218;-63
2022/10/24 09:14:59;;;;;;;;;2.00;1.00;;;;;18.16;59.78;100563.06;4962561;28;45167;-63
2022/10/24 09:17:35;;;;;;;;;4.75;3.25;;;;;18.16;59.82;100538.25;4962672;28;45432;-63
2022/10/24 09:20:28;;;;;;;;;3.75;2.00;;;;;18.19;59.95;100549.59;4953770;28;45287;-63
2022/10/24 09:23:02;;;;;;;;;3.50;1.50;;;;;18.18;59.77;100566.47;4962434;28;46196;-63
2022/10/24 09:25:33;;;;;;;;;3.25;1.00;;;;;18.17;60.08;100559.44;4962428;28;45373;-63
2022/10/24 09:28:04;;;;;;;;;3.25;2.00;;;;;18.28;59.70;100571.38;4962666;28;45326;-62
2022/10/24 09:30:31;;;;;;;;;4.00;2.50;;;;;18.28;59.78;100568.72;4962585;28;45164;-63
2022/10/24 09:33:00;;;;;;;;;1.75;1.75;;;;;18.26;60.04;100576.75;4961597;28;46566;-63
2022/10/24 09:35:28;;;;;;;;;5.50;1.50;;;;;18.29;59.82;100576.59;4962303;28;45492;-63
2022/10/24 09:38:18;;;;;;;;;3.75;2.00;;;;;18.28;60.01;100576.69;4962566;28;45327;-63
2022/10/24 09:40:50;;;;;;;;;4.50;3.00;;;;;18.33;59.81;100603.91;4962012;28;45378;-63
2022/10/24 09:43:17;;;;;;;;;2.00;2.00;;;;;18.40;59.96;100583.19;4962269;28;46351;-62
2022/10/24 09:45:47;;;;;;;;;0.75;0.75;;;;;18.42;59.73;100586.66;4961162;28;45425;-62
2022/10/24 09:48:23;;;;;;;;;5.25;4.00;;;;;18.43;59.90;100583.91;4960537;28;45446;-63
2022/10/24 09:50:51;;;;;;;;;2.75;2.75;;;;;18.44;59.83;100574.13;4962384;28;45171;-63
2022/10/24 09:53:32;;;;;;;;;3.00;1.75;;;;;18.55;59.67;100600.19;4962020;28;46284;-63
2022/10/24 09:56:05;;;;;;;;;2.75;2.25;;;;;18.62;59.68;100583.00;4962257;28;45437;-63
2022/10/24 09:58:32;;;;;;;;;4.25;1.75;;;;;18.61;59.48;100591.91;4961982;28;45345;-62
2022/10/24 10:01:18;;;;;;;;;1.75;1.50;;;;;18.68;59.75;100590.66;4962235;28;45319;-62
2022/10/24 10:04:00;;;;;;;;;5.50;3.00;;;;;18.66;59.74;100592.53;4960764;28;45215;-63
2022/10/24 10:06:26;;;;;;;;;3.25;1.25;;;;;18.75;59.40;100586.72;4961757;28;45330;-62
2022/10/24 10:08:54;;;;;;;;;4.25;1.75;;;;;18.82;59.52;100580.16;4962118;28;45309;-62
2022/10/24 10:11:29;;;;;;;;;4.00;2.75;;;;;18.87;59.38;100587.94;4961800;28;45324;-62
2022/10/24 10:13:56;;;;;;;;;6.25;3.00;;;;;18.93;59.67;100603.63;4960417;28;46833;-62
2022/10/24 10:16:25;;;;;;;;;3.25;1.50;;;;;18.96;59.13;100589.28;4961623;28;45797;-62
2022/10/24 10:19:01;;;;;;;;;2.50;1.00;;;;;18.96;59.30;100602.59;4961519;28;45341;-63
2022/10/24 10:21:26;;;;;;;;;6.50;2.75;;;;;18.97;59.52;100604.31;4961550;28;45440;-63
2022/10/24 10:23:55;;;;;;;;;3.25;2.00;;;;;18.97;59.49;100602.50;4960378;28;46116;-63
2022/10/24 10:26:41;;;;;;;;;3.25;2.25;;;;;19.04;59.06;100621.69;4960403;28;45402;-62
2022/10/24 10:29:15;;;;;;;;;2.00;1.00;;;;;19.06;59.41;100601.19;4961947;28;45403;-61
2022/10/24 10:31:43;;;;;;;;;4.25;2.50;;;;;19.10;59.01;100601.88;4961531;28;45563;-63
2022/10/24 10:34:21;;;;;;;;;3.75;2.00;;;;;19.11;59.41;100590.28;4961248;28;45248;-63
2022/10/24 10:37:04;;;;;;;;;3.00;2.00;;;;;19.20;59.39;100612.91;4961578;28;45301;-62
2022/10/24 10:39:54;;;;;;;;;1.00;1.00;;;;;19.18;59.22;100612.97;4961655;28;45312;-62
2022/10/24 10:43:00;;;;;;;;;8.00;8.00;;;;;19.14;59.62;100608.75;4959841;28;46454;-63
2022/10/24 10:45:46;;;;;;;;;3.75;2.25;;;;;19.21;59.32;100615.50;4961149;28;45265;-63
2022/10/24 10:48:28;;;;;;;;;7.25;5.75;;;;;19.25;59.40;100618.88;4960626;28;45512;-62
2022/10/24 10:51:12;;;;;;;;;7.50;2.50;;;;;19.34;59.14;100618.38;4961389;28;45171;-63
2022/10/24 10:53:49;;;;;;;;;4.00;2.75;;;;;19.31;58.92;100627.38;4961209;28;45225;-63
2022/10/24 10:56:30;;;;;;;;;4.25;2.00;;;;;19.31;59.62;100619.41;4960943;28;46423;-63
2022/10/24 10:59:14;;;;;;;;;3.00;2.00;;;;;19.38;59.31;100625.25;4961205;28;45384;-63
2022/10/24 11:01:56;;;;;;;;;3.75;1.00;;;;;19.42;59.21;100617.97;4961245;28;45269;-63
2022/10/24 11:04:22;;;;;;;;;3.00;1.50;;;;;19.49;58.71;100622.88;4961073;28;45395;-63
2022/10/24 11:07:03;;;;;;;;;1.00;1.00;;;;;19.43;58.69;100625.00;4960948;28;45993;-63
2022/10/24 11:09:48;;;;;;;;;1.00;1.00;;;;;19.42;59.07;100633.94;4959827;28;46468;-62
2022/10/24 11:12:18;;;;;;;;;3.00;1.50;;;;;19.45;59.06;100639.13;4961017;28;45352;-63
2022/10/24 11:14:57;;;;;;;;;3.50;0.00;;;;;19.48;58.84;100617.63;4960338;28;45391;-63
2022/10/24 11:17:29;;;;;;;;;1.75;1.00;;;;;19.49;59.23;100628.19;4960624;28;46653;-63
2022/10/24 11:20:06;;;;;;;;;3.50;2.75;;;;;19.58;59.04;100621.53;4951160;28;45397;-63
2022/10/24 11:22:58;;;;;;;;;3.00;3.00;;;;;19.64;58.77;100620.34;4959636;28;45347;-64
2022/10/24 11:25:37;;;;;;;;;3.25;3.00;;;;;19.63;58.98;100619.50;4955875;28;45365;-63
2022/10/24 11:28:11;;;;;;;;;1.50;1.25;;;;;19.68;58.58;100643.22;4960749;28;45313;-62
2022/10/24 11:30:57;;;;;;;;;4.00;2.00;;;;;19.68;59.26;100637.03;4960875;28;45472;-62
2022/10/24 11:33:49;;;;;;;;;4.50;1.00;;;;;19.62;59.60;100625.75;4952254;28;45230;-62
2022/10/24 11:36:42;;;;;;;;;2.00;2.00;;;;;19.59;59.76;100611.75;4953343;28;45651;-62